createdAt,value
2023-02-11T00:01:31.249Z,21.70
2023-02-11T00:03:59.806Z,21.30
2023-02-11T00:06:29.511Z,23.07
2023-02-11T00:08:56.995Z,23.87
2023-02-11T00:11:26.520Z,21.33
2023-02-11T00:13:53.477Z,21.97
2023-02-11T00:16:21.345Z,22.03
2023-02-11T00:18:50.242Z,21.20
2023-02-11T00:21:24.453Z,22.47
2023-02-11T00:23:52.156Z,21.40
2023-02-11T00:26:25.691Z,20.83
2023-02-11T00:28:53.366Z,20.73
2023-02-11T00:31:23.034Z,21.23
2023-02-11T00:33:50.348Z,22.17
2023-02-11T00:36:24.544Z,20.53
2023-02-11T00:38:53.966Z,21.80
2023-02-11T00:41:22.188Z,21.10
2023-02-11T00:43:49.766Z,21.90
2023-02-11T00:46:19.820Z,22.50
2023-02-11T00:48:46.934Z,22.13
2023-02-11T00:51:13.913Z,22.70
2023-02-11T00:53:41.074Z,22.60
2023-02-11T00:56:08.827Z,21.93
2023-02-11T00:58:37.208Z,23.40
2023-02-11T01:01:04.799Z,22.17
2023-02-11T01:03:32.018Z,22.40
2023-02-11T01:05:58.914Z,22.07
2023-02-11T01:08:29.216Z,23.97
2023-02-11T01:11:02.497Z,22.73
2023-02-11T01:13:32.792Z,22.03
2023-02-11T01:16:00.217Z,23.70
2023-02-11T01:18:27.953Z,23.40
2023-02-11T01:20:55.366Z,22.30
2023-02-11T01:23:22.454Z,24.83
2023-02-11T01:25:50.656Z,24.67
2023-02-11T01:28:20.768Z,23.50
2023-02-11T01:30:48.389Z,22.87
2023-02-11T01:33:15.574Z,23.10
2023-02-11T01:35:43.315Z,22.80
2023-02-11T01:38:18.474Z,22.10
2023-02-11T01:40:58.635Z,22.03
2023-02-11T01:43:28.329Z,24.20
2023-02-11T01:46:31.066Z,25.43
2023-02-11T01:49:06.509Z,22.57
2023-02-11T01:51:42.253Z,24.77
2023-02-11T01:54:31.090Z,24.13
2023-02-11T01:57:18.827Z,24.70
2023-02-11T01:59:58.192Z,23.20
2023-02-11T02:02:39.861Z,23.90
2023-02-11T02:05:30.968Z,24.90
2023-02-11T02:08:19.577Z,22.50
2023-02-11T02:10:49.694Z,25.40
2023-02-11T02:13:17.380Z,23.80
2023-02-11T02:15:55.461Z,23.77
2023-02-11T02:19:00.946Z,23.57
2023-02-11T02:21:49.338Z,23.47
2023-02-11T02:24:36.476Z,24.20
2023-02-11T02:28:07.252Z,22.60
2023-02-11T02:31:03.562Z,23.63
2023-02-11T02:33:56.301Z,24.20
2023-02-11T02:36:41.821Z,23.80
2023-02-11T02:39:27.084Z,22.60
2023-02-11T02:41:56.696Z,23.90
2023-02-11T02:44:24.234Z,24.07
2023-02-11T02:46:51.624Z,24.10
2023-02-11T02:49:18.677Z,24.80
2023-02-11T02:52:30.505Z,25.27
2023-02-11T02:55:32.505Z,24.30
2023-02-11T02:58:14.796Z,23.07
2023-02-11T03:01:20.499Z,24.47
2023-02-11T03:03:53.385Z,23.37
2023-02-11T03:07:01.966Z,23.53
2023-02-11T03:09:40.866Z,21.90
2023-02-11T03:12:08.895Z,22.33
2023-02-11T03:14:36.836Z,23.77
2023-02-11T03:17:06.324Z,22.30
2023-02-11T03:19:46.666Z,24.20
2023-02-11T03:22:42.523Z,22.63
2023-02-11T03:25:09.988Z,22.90
2023-02-11T03:28:05.822Z,22.80
2023-02-11T03:30:45.767Z,23.53
2023-02-11T03:33:57.838Z,22.20
2023-02-11T03:36:33.808Z,22.13
2023-02-11T03:39:03.578Z,20.93
2023-02-11T03:41:31.480Z,21.93
2023-02-11T03:43:59.770Z,22.40
2023-02-11T03:46:35.800Z,21.93
2023-02-11T03:49:12.186Z,23.67
2023-02-11T03:51:40.411Z,21.27
2023-02-11T03:54:13.683Z,22.60
2023-02-11T03:56:49.923Z,22.57
2023-02-11T03:59:16.976Z,21.73
2023-02-11T04:01:44.023Z,22.20
2023-02-11T04:04:11.453Z,21.63
2023-02-11T04:06:38.658Z,19.77
2023-02-11T04:09:05.838Z,21.10
2023-02-11T04:11:32.857Z,20.73
2023-02-11T04:13:59.926Z,21.67
2023-02-11T04:16:27.179Z,20.73
2023-02-11T04:18:54.136Z,20.40
2023-02-11T04:21:21.038Z,21.50
2023-02-11T04:23:47.903Z,22.90
2023-02-11T04:26:14.911Z,24.70
2023-02-11T04:28:41.798Z,22.30
2023-02-11T04:31:10.697Z,21.47
2023-02-11T04:33:37.704Z,22.17
2023-02-11T04:36:04.780Z,22.10
2023-02-11T04:38:32.293Z,22.60
2023-02-11T04:41:00.536Z,21.47
2023-02-11T04:43:27.457Z,20.47
2023-02-11T04:45:58.758Z,20.87
2023-02-11T04:48:26.282Z,21.50
2023-02-11T04:50:53.331Z,21.57
2023-02-11T04:53:20.452Z,22.03
2023-02-11T04:55:50.912Z,20.60
2023-02-11T04:58:20.120Z,21.13
2023-02-11T05:00:47.399Z,19.50
2023-02-11T05:03:14.597Z,21.47
2023-02-11T05:05:42.662Z,19.77
2023-02-11T05:08:12.777Z,21.53
2023-02-11T05:10:39.789Z,20.50
2023-02-11T05:13:06.715Z,20.27
2023-02-11T05:15:33.639Z,20.33
2023-02-11T05:18:00.503Z,21.90
2023-02-11T05:20:27.429Z,19.13
2023-02-11T05:22:54.370Z,20.23
2023-02-11T05:25:21.385Z,19.40
2023-02-11T05:27:48.414Z,19.80
2023-02-11T05:30:15.345Z,19.00
2023-02-11T05:32:42.286Z,18.33
2023-02-11T05:35:09.549Z,18.37
2023-02-11T05:37:36.770Z,17.90
2023-02-11T05:40:04.972Z,18.13
2023-02-11T05:42:32.030Z,20.37
2023-02-11T05:44:58.916Z,19.73
2023-02-11T05:47:25.894Z,22.13
2023-02-11T05:49:55.908Z,21.20
2023-02-11T05:52:24.271Z,21.90
2023-02-11T05:54:51.565Z,26.27
2023-02-11T05:57:18.553Z,26.10
2023-02-11T05:59:45.528Z,24.00
2023-02-11T06:02:12.571Z,22.90
2023-02-11T06:04:39.530Z,22.57
2023-02-11T06:07:06.493Z,27.10
2023-02-11T06:09:33.413Z,25.97
2023-02-11T06:12:00.305Z,23.63
2023-02-11T06:14:27.385Z,22.77
2023-02-11T06:16:54.355Z,22.00
2023-02-11T06:19:21.320Z,31.10
2023-02-11T06:21:48.248Z,24.73
2023-02-11T06:24:17.416Z,22.90
2023-02-11T06:26:46.282Z,21.80
2023-02-11T06:29:13.941Z,21.57
2023-02-11T06:31:41.462Z,22.40
2023-02-11T06:34:10.372Z,21.53
2023-02-11T06:36:39.891Z,21.73
2023-02-11T06:39:08.205Z,20.67
2023-02-11T06:41:35.122Z,20.60
2023-02-11T06:44:02.279Z,22.20
2023-02-11T06:46:29.371Z,21.07
2023-02-11T06:48:56.543Z,22.03
2023-02-11T06:51:23.632Z,20.57
2023-02-11T06:53:50.591Z,20.40
2023-02-11T06:56:23.011Z,21.63
2023-02-11T06:58:56.338Z,22.10
2023-02-11T07:01:25.336Z,20.23
2023-02-11T07:03:53.592Z,19.20
2023-02-11T07:06:27.739Z,19.37
2023-02-11T07:08:56.223Z,20.27
2023-02-11T07:11:27.477Z,19.33
2023-02-11T07:14:00.803Z,19.90
2023-02-11T07:16:27.992Z,19.47
2023-02-11T07:18:55.018Z,17.50
2023-02-11T07:21:24.378Z,18.90
2023-02-11T07:23:52.247Z,19.67
2023-02-11T07:26:25.906Z,17.90
2023-02-11T07:28:53.952Z,19.27
2023-02-11T07:31:27.925Z,19.57
2023-02-11T07:33:59.818Z,19.07
2023-02-11T07:36:28.599Z,19.33
2023-02-11T07:38:55.650Z,19.10
2023-02-11T07:41:25.169Z,18.03
2023-02-11T07:43:54.057Z,16.57
2023-02-11T07:46:25.553Z,17.10
2023-02-11T07:48:53.383Z,18.03
2023-02-11T07:51:23.583Z,19.43
2023-02-11T07:53:50.861Z,17.90
2023-02-11T07:56:19.917Z,18.00
2023-02-11T07:58:47.157Z,17.03
2023-02-11T08:01:18.669Z,18.30
2023-02-11T08:03:45.777Z,18.70
2023-02-11T08:06:16.483Z,19.03
2023-02-11T08:08:44.490Z,18.20
2023-02-11T08:11:21.826Z,20.10
2023-02-11T08:13:49.360Z,19.07
2023-02-11T08:16:22.549Z,19.80
2023-02-11T08:18:51.054Z,18.43
2023-02-11T08:21:18.900Z,18.87
2023-02-11T08:23:46.916Z,17.90
2023-02-11T08:26:23.794Z,17.23
2023-02-11T08:28:54.259Z,16.03
2023-02-11T08:31:25.234Z,17.60
2023-02-11T08:33:54.619Z,17.50
2023-02-11T08:36:25.151Z,15.50
2023-02-11T08:38:57.159Z,16.67
2023-02-11T08:41:32.644Z,17.00
2023-02-11T08:43:59.784Z,17.10
2023-02-11T08:46:27.988Z,18.10
2023-02-11T08:48:55.852Z,18.30
2023-02-11T08:51:27.557Z,16.20
2023-02-11T08:53:56.282Z,16.40
2023-02-11T08:56:23.820Z,16.80
2023-02-11T08:58:51.904Z,17.37
2023-02-11T09:01:24.274Z,16.07
2023-02-11T09:03:51.950Z,15.03
2023-02-11T09:06:19.890Z,16.17
2023-02-11T09:08:49.906Z,15.83
2023-02-11T09:11:22.577Z,15.80
2023-02-11T09:13:50.972Z,16.30
2023-02-11T09:16:28.032Z,14.30
2023-02-11T09:18:58.264Z,15.63
2023-02-11T09:21:25.736Z,15.67
2023-02-11T09:23:53.384Z,15.57
2023-02-11T09:26:27.383Z,15.53
2023-02-11T09:28:54.679Z,15.47
2023-02-11T09:31:24.975Z,13.00
2023-02-11T09:33:56.912Z,14.80
2023-02-11T09:36:33.713Z,13.60
2023-02-11T09:39:02.296Z,13.13
2023-02-11T09:41:39.719Z,12.80
2023-02-11T09:44:18.521Z,13.27
2023-02-11T09:47:01.024Z,14.00
2023-02-11T09:49:51.914Z,13.57
2023-02-11T09:52:24.635Z,11.60
2023-02-11T09:55:01.254Z,12.50
2023-02-11T09:57:36.569Z,12.23
2023-02-11T10:00:24.304Z,12.63
2023-02-11T10:03:42.593Z,12.40
2023-02-11T10:06:37.002Z,13.33
2023-02-11T10:09:33.051Z,11.40
2023-02-11T10:12:15.042Z,13.23
2023-02-11T10:14:50.620Z,12.33
2023-02-11T10:17:20.241Z,12.60
2023-02-11T10:19:59.098Z,14.37
2023-02-11T10:22:36.871Z,13.77
2023-02-11T10:25:40.382Z,13.10
2023-02-11T10:28:24.653Z,12.90
2023-02-11T10:31:03.986Z,12.83
2023-02-11T10:34:05.721Z,13.03
2023-02-11T10:36:40.212Z,12.53
2023-02-11T10:39:14.209Z,13.10
2023-02-11T10:41:56.677Z,12.17
2023-02-11T10:44:44.072Z,12.30
2023-02-11T10:47:22.914Z,13.00
2023-02-11T10:49:50.094Z,14.60
2023-02-11T10:52:20.168Z,12.77
2023-02-11T10:55:05.090Z,13.07
2023-02-11T10:57:59.533Z,15.60
2023-02-11T11:00:41.522Z,13.50
2023-02-11T11:03:46.950Z,14.20
2023-02-11T11:06:14.014Z,14.17
2023-02-11T11:08:49.420Z,14.03
2023-02-11T11:11:22.986Z,14.93
2023-02-11T11:13:53.164Z,14.10
2023-02-11T11:16:27.300Z,13.73
2023-02-11T11:19:23.542Z,13.80
2023-02-11T11:21:56.064Z,14.17
2023-02-11T11:24:40.612Z,14.37
2023-02-11T11:27:21.846Z,15.87
2023-02-11T11:29:55.139Z,13.43
2023-02-11T11:32:32.492Z,14.43
2023-02-11T11:35:05.989Z,15.33
2023-02-11T11:37:39.025Z,16.10
2023-02-11T11:40:08.993Z,14.60
2023-02-11T11:42:39.189Z,15.40
2023-02-11T11:45:25.791Z,15.50
2023-02-11T11:48:46.892Z,15.73
2023-02-11T11:51:14.051Z,17.07
2023-02-11T11:54:12.681Z,16.13
2023-02-11T11:56:54.358Z,15.07
2023-02-11T11:59:22.566Z,14.60
2023-02-11T12:02:06.862Z,14.60
2023-02-11T12:05:10.584Z,15.83
2023-02-11T12:08:20.653Z,14.50
2023-02-11T12:11:05.806Z,13.93
2023-02-11T12:14:06.493Z,15.13
2023-02-11T12:17:03.573Z,14.67
2023-02-11T12:19:48.729Z,14.63
2023-02-11T12:22:44.392Z,13.60
2023-02-11T12:25:54.280Z,14.70
2023-02-11T12:28:53.897Z,13.73
2023-02-11T12:31:53.876Z,14.03
2023-02-11T12:34:58.378Z,12.10
2023-02-11T12:37:41.328Z,13.93
2023-02-11T12:40:21.854Z,13.87
2023-02-11T12:43:16.528Z,13.80
2023-02-11T12:46:24.329Z,13.63
2023-02-11T12:49:24.562Z,13.73
2023-02-11T12:52:22.695Z,13.57
2023-02-11T12:55:02.711Z,13.20
2023-02-11T12:57:33.558Z,13.17
2023-02-11T13:00:00.381Z,13.57
2023-02-11T13:02:34.298Z,13.80
2023-02-11T13:05:29.743Z,14.97
2023-02-11T13:08:42.941Z,15.07
2023-02-11T13:11:41.124Z,13.30
2023-02-11T13:14:32.703Z,13.70
2023-02-11T13:17:00.396Z,16.10
2023-02-11T13:19:52.938Z,14.60
2023-02-11T13:22:28.539Z,14.73
2023-02-11T13:25:31.356Z,14.33
2023-02-11T13:28:28.549Z,14.33
2023-02-11T13:31:03.459Z,14.70
2023-02-11T13:33:35.521Z,13.73
2023-02-11T13:36:04.613Z,13.50
2023-02-11T13:38:33.176Z,15.30
2023-02-11T13:41:26.470Z,14.10
2023-02-11T13:44:22.680Z,14.53
2023-02-11T13:47:02.192Z,14.40
2023-02-11T13:49:33.721Z,14.80
2023-02-11T13:52:02.691Z,13.80
2023-02-11T13:54:39.162Z,14.50
2023-02-11T13:57:26.341Z,13.60
2023-02-11T14:00:10.273Z,14.00
2023-02-11T14:02:56.643Z,14.40
2023-02-11T14:05:50.951Z,13.53
2023-02-11T14:08:44.494Z,14.10
2023-02-11T14:11:43.593Z,13.40
2023-02-11T14:14:27.255Z,13.50
2023-02-11T14:17:00.787Z,13.60
2023-02-11T14:19:45.904Z,12.40
2023-02-11T14:22:31.807Z,11.90
2023-02-11T14:25:05.288Z,11.53
2023-02-11T14:27:52.221Z,9.17
2023-02-11T14:30:44.323Z,9.00
2023-02-11T14:33:32.642Z,8.03
2023-02-11T14:36:28.385Z,8.70
2023-02-11T14:39:32.699Z,8.30
2023-02-11T14:42:02.864Z,7.53
2023-02-11T14:44:33.205Z,9.10
2023-02-11T14:47:00.584Z,8.20
2023-02-11T14:49:30.565Z,9.00
2023-02-11T14:52:25.922Z,8.77
2023-02-11T14:55:17.893Z,10.73
2023-02-11T14:57:45.746Z,10.80
2023-02-11T15:00:20.878Z,9.73
2023-02-11T15:02:48.791Z,11.53
2023-02-11T15:05:29.030Z,9.90
2023-02-11T15:08:02.922Z,10.57
2023-02-11T15:10:43.469Z,10.00
2023-02-11T15:13:20.182Z,10.63
2023-02-11T15:15:55.229Z,11.40
2023-02-11T15:18:33.591Z,11.20
2023-02-11T15:21:01.009Z,10.83
2023-02-11T15:23:30.044Z,11.20
2023-02-11T15:25:57.107Z,11.40
2023-02-11T15:28:34.260Z,11.57
2023-02-11T15:31:14.656Z,11.53
2023-02-11T15:33:41.819Z,11.80
2023-02-11T15:36:13.768Z,14.00
2023-02-11T15:38:41.039Z,14.37
2023-02-11T15:41:35.993Z,12.90
2023-02-11T15:44:02.888Z,13.53
2023-02-11T15:46:39.522Z,14.13
2023-02-11T15:49:08.513Z,12.97
2023-02-11T15:51:37.451Z,13.83
2023-02-11T15:54:16.738Z,12.63
2023-02-11T15:56:47.519Z,13.43
2023-02-11T15:59:23.876Z,13.53
2023-02-11T16:01:50.886Z,13.10
2023-02-11T16:04:21.990Z,13.83
2023-02-11T16:06:51.072Z,13.90
2023-02-11T16:09:30.558Z,14.07
2023-02-11T16:12:04.817Z,13.33
2023-02-11T16:14:42.218Z,13.77
2023-02-11T16:17:22.337Z,13.57
2023-02-11T16:19:51.946Z,13.70
2023-02-11T16:22:30.101Z,14.00
2023-02-11T16:25:00.576Z,13.13
2023-02-11T16:27:38.181Z,14.50
2023-02-11T16:30:07.192Z,12.30
2023-02-11T16:32:35.032Z,14.63
2023-02-11T16:35:02.143Z,12.67
2023-02-11T16:37:29.061Z,13.50
2023-02-11T16:39:58.030Z,14.00
2023-02-11T16:42:25.249Z,13.23
2023-02-11T16:44:52.322Z,12.33
2023-02-11T16:47:27.900Z,13.47
2023-02-11T16:49:56.727Z,12.30
2023-02-11T16:52:24.459Z,14.40
2023-02-11T16:54:52.085Z,14.10
2023-02-11T16:57:26.933Z,16.37
2023-02-11T16:59:55.094Z,15.73
2023-02-11T17:02:36.289Z,14.50
2023-02-11T17:05:11.971Z,14.60
2023-02-11T17:07:39.109Z,13.87
2023-02-11T17:10:15.121Z,14.20
2023-02-11T17:12:42.026Z,13.37
2023-02-11T17:15:09.754Z,14.40
2023-02-11T17:17:36.782Z,14.70
2023-02-11T17:20:04.120Z,15.17
2023-02-11T17:22:31.028Z,13.73
2023-02-11T17:24:58.765Z,15.10
2023-02-11T17:27:25.789Z,14.00
2023-02-11T17:29:52.843Z,13.10
2023-02-11T17:32:19.884Z,13.77
2023-02-11T17:34:46.958Z,13.93
2023-02-11T17:37:13.956Z,13.67
2023-02-11T17:39:41.122Z,14.03
2023-02-11T17:42:08.692Z,13.27
2023-02-11T17:44:35.728Z,14.90
2023-02-11T17:47:02.764Z,14.90
2023-02-11T17:49:30.213Z,14.27
2023-02-11T17:51:57.162Z,13.53
2023-02-11T17:54:25.004Z,14.27
2023-02-11T17:56:55.169Z,14.63
2023-02-11T17:59:25.207Z,48.53
2023-02-11T18:01:52.154Z,36.73
2023-02-11T18:04:20.305Z,22.70
2023-02-11T18:06:47.642Z,17.37
2023-02-11T18:09:14.756Z,16.30
2023-02-11T18:11:42.101Z,15.80
2023-02-11T18:14:10.775Z,14.67
2023-02-11T18:16:39.793Z,16.60
2023-02-11T18:19:07.672Z,17.93
2023-02-11T18:21:35.315Z,17.60
2023-02-11T18:24:06.396Z,16.83
2023-02-11T18:26:34.465Z,17.10
2023-02-11T18:29:02.006Z,16.83
2023-02-11T18:31:29.567Z,15.83
2023-02-11T18:33:56.482Z,16.97
2023-02-11T18:36:23.802Z,15.73
2023-02-11T18:38:52.641Z,16.53
2023-02-11T18:41:20.531Z,14.77
2023-02-11T18:43:47.467Z,14.63
2023-02-11T18:46:16.052Z,15.57
2023-02-11T18:48:44.817Z,12.40
2023-02-11T18:51:15.836Z,13.20
2023-02-11T18:53:43.348Z,13.77
2023-02-11T18:56:15.252Z,12.87
2023-02-11T18:58:42.412Z,11.10
2023-02-11T19:01:25.945Z,10.87
2023-02-11T19:03:54.832Z,10.17
2023-02-11T19:06:28.595Z,9.83
2023-02-11T19:08:59.957Z,10.27
2023-02-11T19:11:47.226Z,10.70
2023-02-11T19:14:25.718Z,11.23
2023-02-11T19:16:56.755Z,13.23
2023-02-11T19:19:25.739Z,14.67
2023-02-11T19:21:52.835Z,16.20
2023-02-11T19:24:20.288Z,15.80
2023-02-11T19:26:49.569Z,15.80
2023-02-11T19:29:17.281Z,16.70
2023-02-11T19:31:44.988Z,19.20
2023-02-11T19:34:14.163Z,22.80
2023-02-11T19:36:41.564Z,20.23
2023-02-11T19:39:09.246Z,22.43
2023-02-11T19:41:37.033Z,19.70
2023-02-11T19:44:05.990Z,16.67
2023-02-11T19:46:36.963Z,17.47
2023-02-11T19:49:05.367Z,16.60
2023-02-11T19:51:33.905Z,16.70
2023-02-11T19:54:02.328Z,15.53
2023-02-11T19:56:29.342Z,13.90
2023-02-11T19:58:56.779Z,11.57
2023-02-11T20:01:26.121Z,12.20
2023-02-11T20:03:57.038Z,12.40
2023-02-11T20:06:30.538Z,12.23
2023-02-11T20:09:04.227Z,13.23
2023-02-11T20:11:31.902Z,11.43
2023-02-11T20:14:00.192Z,13.50
2023-02-11T20:16:45.076Z,12.30
2023-02-11T20:19:21.447Z,12.17
2023-02-11T20:21:52.468Z,12.07
2023-02-11T20:24:20.535Z,11.73
2023-02-11T20:26:48.781Z,13.13
2023-02-11T20:29:18.990Z,14.00
2023-02-11T20:31:46.368Z,12.87
2023-02-11T20:34:13.542Z,15.60
2023-02-11T20:36:40.751Z,16.33
2023-02-11T20:39:08.356Z,17.27
2023-02-11T20:41:39.909Z,17.00
2023-02-11T20:44:09.925Z,16.03
2023-02-11T20:46:40.315Z,15.23
2023-02-11T20:49:10.322Z,15.40
2023-02-11T20:51:37.576Z,16.60
2023-02-11T20:54:06.227Z,15.47
2023-02-11T20:56:36.677Z,14.50
2023-02-11T20:59:05.769Z,14.90
2023-02-11T21:01:43.208Z,14.60
2023-02-11T21:04:20.279Z,13.60
2023-02-11T21:06:55.313Z,14.93
2023-02-11T21:09:26.441Z,15.20
2023-02-11T21:11:54.785Z,15.50
2023-02-11T21:14:24.814Z,14.73
2023-02-11T21:16:52.637Z,14.70
2023-02-11T21:19:20.316Z,14.40
2023-02-11T21:21:47.768Z,14.20
2023-02-11T21:24:17.300Z,16.27
2023-02-11T21:26:44.254Z,14.97
2023-02-11T21:29:11.891Z,13.90
2023-02-11T21:31:39.609Z,13.60
2023-02-11T21:34:07.234Z,14.13
2023-02-11T21:36:34.260Z,13.60
2023-02-11T21:39:01.926Z,13.93
2023-02-11T21:41:29.119Z,12.53
2023-02-11T21:43:56.477Z,14.03
2023-02-11T21:46:23.749Z,15.03
2023-02-11T21:48:50.981Z,13.57
2023-02-11T21:51:23.743Z,13.33
2023-02-11T21:54:02.291Z,13.53
2023-02-11T21:56:31.368Z,14.87
2023-02-11T21:59:00.019Z,14.67
2023-02-11T22:01:33.351Z,14.50
2023-02-11T22:04:00.562Z,14.40
2023-02-11T22:06:31.093Z,13.93
2023-02-11T22:09:01.816Z,16.87
2023-02-11T22:11:28.781Z,15.80
2023-02-11T22:13:57.755Z,15.27
2023-02-11T22:16:29.812Z,14.97
2023-02-11T22:18:58.922Z,12.87
2023-02-11T22:21:27.700Z,14.47
2023-02-11T22:23:55.957Z,13.60
2023-02-11T22:26:26.326Z,12.97
2023-02-11T22:28:54.863Z,12.20
2023-02-11T22:31:29.048Z,13.10
2023-02-11T22:33:57.297Z,15.03
2023-02-11T22:36:30.766Z,12.43
2023-02-11T22:39:02.097Z,12.90
2023-02-11T22:41:29.598Z,15.50
2023-02-11T22:43:56.706Z,14.10
2023-02-11T22:46:23.702Z,14.67
2023-02-11T22:48:51.264Z,14.90
2023-02-11T22:51:25.547Z,13.53
2023-02-11T22:53:56.612Z,12.60
2023-02-11T22:56:24.625Z,13.90
2023-02-11T22:58:53.194Z,14.77
2023-02-11T23:01:20.768Z,14.23
2023-02-11T23:03:47.715Z,13.30
2023-02-11T23:06:14.827Z,14.23
2023-02-11T23:08:45.398Z,11.97
2023-02-11T23:11:17.118Z,13.10
2023-02-11T23:13:45.534Z,13.10
2023-02-11T23:16:17.371Z,14.10
2023-02-11T23:18:46.163Z,13.40
2023-02-11T23:21:24.215Z,13.77
2023-02-11T23:24:13.234Z,12.63
2023-02-11T23:26:42.206Z,14.20
2023-02-11T23:29:10.789Z,14.60
2023-02-11T23:31:40.729Z,14.00
2023-02-11T23:34:08.278Z,16.80
2023-02-11T23:36:35.877Z,15.60
2023-02-11T23:39:03.430Z,18.57
2023-02-11T23:41:30.399Z,16.80
2023-02-11T23:43:58.097Z,18.47
2023-02-11T23:46:27.127Z,17.23
2023-02-11T23:48:54.346Z,18.67
2023-02-11T23:51:21.704Z,18.87
2023-02-11T23:53:49.654Z,17.57
2023-02-11T23:56:20.974Z,19.10
2023-02-11T23:58:50.156Z,18.73
